sensor_id;sensor_type;location;lat;lon;timestamp;temperature;humidity
6008;DHT22;3032;49.484;11.112;2024-01-06T00:01:36;6.70;99.90
6008;DHT22;3032;49.484;11.112;2024-01-06T00:04:02;6.50;99.90
6008;DHT22;3032;49.484;11.112;2024-01-06T00:06:27;6.40;99.90
6008;DHT22;3032;49.484;11.112;2024-01-06T00:08:53;6.30;99.90
6008;DHT22;3032;49.484;11.112;2024-01-06T00:11:20;6.20;99.90
6008;DHT22;3032;49.484;11.112;2024-01-06T00:13:46;6.20;99.90
6008;DHT22;3032;49.484;11.112;2024-01-06T00:16:12;6.10;99.90
6008;DHT22;3032;49.484;11.112;2024-01-06T00:18:38;6.00;99.90
6008;DHT22;3032;49.484;11.112;2024-01-06T00:21:04;6.10;99.90
6008;DHT22;3032;49.484;11.112;2024-01-06T00:23:29;6.20;99.90
6008;DHT22;3032;49.484;11.112;2024-01-06T00:25:55;6.10;99.90
6008;DHT22;3032;49.484;11.112;2024-01-06T00:28:21;6.30;99.90
6008;DHT22;3032;49.484;11.112;2024-01-06T00:30:47;6.30;99.90
6008;DHT22;3032;49.484;11.112;2024-01-06T00:33:12;6.10;99.90
6008;DHT22;3032;49.484;11.112;2024-01-06T00:35:38;6.10;99.90
6008;DHT22;3032;49.484;11.112;2024-01-06T00:38:03;6.20;99.90
6008;DHT22;3032;49.484;11.112;2024-01-06T00:40:29;6.30;99.90
6008;DHT22;3032;49.484;11.112;2024-01-06T00:42:54;6.50;99.90
6008;DHT22;3032;49.484;11.112;2024-01-06T00:45:20;6.70;99.90
6008;DHT22;3032;49.484;11.112;2024-01-06T00:47:46;6.80;99.90
6008;DHT22;3032;49.484;11.112;2024-01-06T00:50:11;6.80;99.90
6008;DHT22;3032;49.484;11.112;2024-01-06T00:52:38;6.70;99.90
6008;DHT22;3032;49.484;11.112;2024-01-06T00:55:04;6.80;99.90
6008;DHT22;3032;49.484;11.112;2024-01-06T00:57:29;6.80;99.90
6008;DHT22;3032;49.484;11.112;2024-01-06T00:59:55;6.70;99.90
6008;DHT22;3032;49.484;11.112;2024-01-06T01:02:21;6.50;99.90
6008;DHT22;3032;49.484;11.112;2024-01-06T01:04:46;6.60;99.90
6008;DHT22;3032;49.484;11.112;2024-01-06T01:07:12;6.70;99.90
6008;DHT22;3032;49.484;11.112;2024-01-06T01:09:38;6.70;99.90
6008;DHT22;3032;49.484;11.112;2024-01-06T01:12:03;6.70;99.90
6008;DHT22;3032;49.484;11.112;2024-01-06T01:14:29;6.70;99.90
6008;DHT22;3032;49.484;11.112;2024-01-06T01:16:54;6.70;99.90
6008;DHT22;3032;49.484;11.112;2024-01-06T01:19:20;6.60;99.90
6008;DHT22;3032;49.484;11.112;2024-01-06T01:21:45;6.60;99.90
6008;DHT22;3032;49.484;11.112;2024-01-06T01:24:11;6.50;99.90
6008;DHT22;3032;49.484;11.112;2024-01-06T01:26:36;6.30;99.90
6008;DHT22;3032;49.484;11.112;2024-01-06T01:29:02;6.20;99.90
6008;DHT22;3032;49.484;11.112;2024-01-06T01:31:27;6.10;99.90
6008;DHT22;3032;49.484;11.112;2024-01-06T01:33:53;6.00;99.90
6008;DHT22;3032;49.484;11.112;2024-01-06T01:36:18;5.80;99.90
6008;DHT22;3032;49.484;11.112;2024-01-06T01:38:44;5.40;99.90
6008;DHT22;3032;49.484;11.112;2024-01-06T01:41:09;5.40;99.90
6008;DHT22;3032;49.484;11.112;2024-01-06T01:43:35;5.40;99.90
6008;DHT22;3032;49.484;11.112;2024-01-06T01:46:01;5.20;99.90
6008;DHT22;3032;49.484;11.112;2024-01-06T01:48:27;5.30;99.90
6008;DHT22;3032;49.484;11.112;2024-01-06T01:50:53;5.50;99.90
6008;DHT22;3032;49.484;11.112;2024-01-06T01:53:19;5.70;99.90
6008;DHT22;3032;49.484;11.112;2024-01-06T01:55:46;5.70;99.90
6008;DHT22;3032;49.484;11.112;2024-01-06T01:58:14;5.80;99.90
6008;DHT22;3032;49.484;11.112;2024-01-06T02:00:40;6.00;99.90
6008;DHT22;3032;49.484;11.112;2024-01-06T02:03:05;6.00;99.90
6008;DHT22;3032;49.484;11.112;2024-01-06T02:05:32;6.00;99.90
6008;DHT22;3032;49.484;11.112;2024-01-06T02:07:58;6.10;99.90
6008;DHT22;3032;49.484;11.112;2024-01-06T02:10:24;6.00;99.90
6008;DHT22;3032;49.484;11.112;2024-01-06T02:12:49;6.00;99.90
6008;DHT22;3032;49.484;11.112;2024-01-06T02:15:17;5.90;99.90
6008;DHT22;3032;49.484;11.112;2024-01-06T02:17:42;5.90;99.90
6008;DHT22;3032;49.484;11.112;2024-01-06T02:20:09;5.60;99.90
6008;DHT22;3032;49.484;11.112;2024-01-06T02:22:35;5.50;99.90
6008;DHT22;3032;49.484;11.112;2024-01-06T02:25:02;5.60;99.90
6008;DHT22;3032;49.484;11.112;2024-01-06T02:27:28;5.50;99.90
6008;DHT22;3032;49.484;11.112;2024-01-06T02:29:53;5.60;99.90
6008;DHT22;3032;49.484;11.112;2024-01-06T02:32:19;5.80;99.90
6008;DHT22;3032;49.484;11.112;2024-01-06T02:34:44;5.90;99.90
6008;DHT22;3032;49.484;11.112;2024-01-06T02:37:10;5.80;99.90
6008;DHT22;3032;49.484;11.112;2024-01-06T02:39:35;5.60;99.90
6008;DHT22;3032;49.484;11.112;2024-01-06T02:42:01;5.80;99.90
6008;DHT22;3032;49.484;11.112;2024-01-06T02:44:26;5.80;99.90
6008;DHT22;3032;49.484;11.112;2024-01-06T02:46:52;6.00;99.90
6008;DHT22;3032;49.484;11.112;2024-01-06T02:49:19;6.10;99.90
6008;DHT22;3032;49.484;11.112;2024-01-06T02:51:45;6.20;99.90
6008;DHT22;3032;49.484;11.112;2024-01-06T02:54:10;6.30;99.90
6008;DHT22;3032;49.484;11.112;2024-01-06T02:56:36;6.30;99.90
6008;DHT22;3032;49.484;11.112;2024-01-06T02:59:03;6.20;99.90
6008;DHT22;3032;49.484;11.112;2024-01-06T03:01:29;6.20;99.90
6008;DHT22;3032;49.484;11.112;2024-01-06T03:03:54;6.30;99.90
6008;DHT22;3032;49.484;11.112;2024-01-06T03:06:20;6.40;99.90
6008;DHT22;3032;49.484;11.112;2024-01-06T03:08:45;6.40;99.90
6008;DHT22;3032;49.484;11.112;2024-01-06T03:11:11;6.30;99.90
6008;DHT22;3032;49.484;11.112;2024-01-06T03:13:36;6.20;99.90
6008;DHT22;3032;49.484;11.112;2024-01-06T03:16:05;6.30;99.90
6008;DHT22;3032;49.484;11.112;2024-01-06T03:18:31;6.50;99.90
6008;DHT22;3032;49.484;11.112;2024-01-06T03:20:56;6.50;99.90
6008;DHT22;3032;49.484;11.112;2024-01-06T03:23:22;6.50;99.90
6008;DHT22;3032;49.484;11.112;2024-01-06T03:25:47;6.50;99.90
6008;DHT22;3032;49.484;11.112;2024-01-06T03:28:13;6.50;99.90
6008;DHT22;3032;49.484;11.112;2024-01-06T03:30:39;6.50;99.90
6008;DHT22;3032;49.484;11.112;2024-01-06T03:33:06;6.40;99.90
6008;DHT22;3032;49.484;11.112;2024-01-06T03:35:32;6.40;99.90
6008;DHT22;3032;49.484;11.112;2024-01-06T03:37:57;6.20;99.90
6008;DHT22;3032;49.484;11.112;2024-01-06T03:40:23;6.00;99.90
6008;DHT22;3032;49.484;11.112;2024-01-06T03:42:49;5.70;99.90
6008;DHT22;3032;49.484;11.112;2024-01-06T03:45:14;5.50;99.90
6008;DHT22;3032;49.484;11.112;2024-01-06T03:47:41;5.30;99.90
6008;DHT22;3032;49.484;11.112;2024-01-06T03:50:07;5.40;99.90
6008;DHT22;3032;49.484;11.112;2024-01-06T03:52:32;5.50;99.90
6008;DHT22;3032;49.484;11.112;2024-01-06T03:54:58;5.70;99.90
6008;DHT22;3032;49.484;11.112;2024-01-06T03:57:23;5.90;99.90
6008;DHT22;3032;49.484;11.112;2024-01-06T03:59:49;6.10;99.90
6008;DHT22;3032;49.484;11.112;2024-01-06T04:02:14;6.20;99.90
6008;DHT22;3032;49.484;11.112;2024-01-06T04:04:40;6.30;99.90
6008;DHT22;3032;49.484;11.112;2024-01-06T04:07:05;6.50;99.90
6008;DHT22;3032;49.484;11.112;2024-01-06T04:09:32;6.50;99.90
6008;DHT22;3032;49.484;11.112;2024-01-06T04:11:57;6.50;99.90
6008;DHT22;3032;49.484;11.112;2024-01-06T04:14:23;6.40;99.90
6008;DHT22;3032;49.484;11.112;2024-01-06T04:16:49;6.30;99.90
6008;DHT22;3032;49.484;11.112;2024-01-06T04:19:14;6.30;99.90
6008;DHT22;3032;49.484;11.112;2024-01-06T04:21:40;6.30;99.90
6008;DHT22;3032;49.484;11.112;2024-01-06T04:24:06;6.20;99.90
6008;DHT22;3032;49.484;11.112;2024-01-06T04:26:31;6.30;99.90
6008;DHT22;3032;49.484;11.112;2024-01-06T04:28:57;6.20;99.90
6008;DHT22;3032;49.484;11.112;2024-01-06T04:31:22;6.10;99.90
6008;DHT22;3032;49.484;11.112;2024-01-06T04:33:48;6.10;99.90
6008;DHT22;3032;49.484;11.112;2024-01-06T04:36:13;6.20;99.90
6008;DHT22;3032;49.484;11.112;2024-01-06T04:38:39;6.30;99.90
6008;DHT22;3032;49.484;11.112;2024-01-06T04:41:05;6.40;99.90
6008;DHT22;3032;49.484;11.112;2024-01-06T04:43:30;6.40;99.90
6008;DHT22;3032;49.484;11.112;2024-01-06T04:45:56;6.40;99.90
6008;DHT22;3032;49.484;11.112;2024-01-06T04:48:23;6.20;99.90
6008;DHT22;3032;49.484;11.112;2024-01-06T04:50:48;6.10;99.90
6008;DHT22;3032;49.484;11.112;2024-01-06T04:53:14;6.10;99.90
6008;DHT22;3032;49.484;11.112;2024-01-06T04:55:39;6.10;99.90
6008;DHT22;3032;49.484;11.112;2024-01-06T04:58:05;6.20;99.90
6008;DHT22;3032;49.484;11.112;2024-01-06T05:00:30;6.00;99.90
6008;DHT22;3032;49.484;11.112;2024-01-06T05:02:56;5.60;99.90
6008;DHT22;3032;49.484;11.112;2024-01-06T05:05:21;5.80;99.90
6008;DHT22;3032;49.484;11.112;2024-01-06T05:07:47;6.00;99.90
6008;DHT22;3032;49.484;11.112;2024-01-06T05:10:13;6.10;99.90
6008;DHT22;3032;49.484;11.112;2024-01-06T05:12:38;6.10;99.90
6008;DHT22;3032;49.484;11.112;2024-01-06T05:15:04;6.00;99.90
6008;DHT22;3032;49.484;11.112;2024-01-06T05:17:30;6.00;99.90
6008;DHT22;3032;49.484;11.112;2024-01-06T05:19:56;6.00;99.90
6008;DHT22;3032;49.484;11.112;2024-01-06T05:22:21;5.80;99.90
6008;DHT22;3032;49.484;11.112;2024-01-06T05:24:47;5.60;99.90
6008;DHT22;3032;49.484;11.112;2024-01-06T05:27:12;5.40;99.90
6008;DHT22;3032;49.484;11.112;2024-01-06T05:29:38;5.60;99.90
6008;DHT22;3032;49.484;11.112;2024-01-06T05:32:04;5.60;99.90
6008;DHT22;3032;49.484;11.112;2024-01-06T05:34:29;5.70;99.90
6008;DHT22;3032;49.484;11.112;2024-01-06T05:36:55;5.70;99.90
6008;DHT22;3032;49.484;11.112;2024-01-06T05:39:20;5.70;99.90
6008;DHT22;3032;49.484;11.112;2024-01-06T05:41:46;5.80;99.90
6008;DHT22;3032;49.484;11.112;2024-01-06T05:44:11;5.70;99.90
6008;DHT22;3032;49.484;11.112;2024-01-06T05:46:37;5.80;99.90
6008;DHT22;3032;49.484;11.112;2024-01-06T05:49:02;5.80;99.90
6008;DHT22;3032;49.484;11.112;2024-01-06T05:51:28;5.90;99.90
6008;DHT22;3032;49.484;11.112;2024-01-06T05:53:53;6.00;99.90
6008;DHT22;3032;49.484;11.112;2024-01-06T05:56:26;5.90;99.90
6008;DHT22;3032;49.484;11.112;2024-01-06T05:58:52;5.90;99.90
6008;DHT22;3032;49.484;11.112;2024-01-06T06:01:19;5.70;99.90
6008;DHT22;3032;49.484;11.112;2024-01-06T06:03:46;5.70;99.90
6008;DHT22;3032;49.484;11.112;2024-01-06T06:06:11;5.70;99.90
6008;DHT22;3032;49.484;11.112;2024-01-06T06:08:37;5.50;99.90
6008;DHT22;3032;49.484;11.112;2024-01-06T06:11:03;5.50;99.90
6008;DHT22;3032;49.484;11.112;2024-01-06T06:13:42;5.40;99.90
6008;DHT22;3032;49.484;11.112;2024-01-06T06:16:09;5.40;99.90
6008;DHT22;3032;49.484;11.112;2024-01-06T06:18:35;5.30;99.90
6008;DHT22;3032;49.484;11.112;2024-01-06T06:21:01;5.40;99.90
6008;DHT22;3032;49.484;11.112;2024-01-06T06:23:29;5.50;99.90
6008;DHT22;3032;49.484;11.112;2024-01-06T06:25:54;5.70;99.90
6008;DHT22;3032;49.484;11.112;2024-01-06T06:28:20;5.80;99.90
6008;DHT22;3032;49.484;11.112;2024-01-06T06:30:45;5.80;99.90
6008;DHT22;3032;49.484;11.112;2024-01-06T06:33:11;5.80;99.90
6008;DHT22;3032;49.484;11.112;2024-01-06T06:35:36;5.80;99.90
6008;DHT22;3032;49.484;11.112;2024-01-06T06:38:02;5.90;99.90
6008;DHT22;3032;49.484;11.112;2024-01-06T06:40:28;5.90;99.90
6008;DHT22;3032;49.484;11.112;2024-01-06T06:42:54;6.00;99.90
6008;DHT22;3032;49.484;11.112;2024-01-06T06:45:19;6.00;99.90
6008;DHT22;3032;49.484;11.112;2024-01-06T06:47:51;6.00;99.90
6008;DHT22;3032;49.484;11.112;2024-01-06T06:50:17;5.90;99.90
6008;DHT22;3032;49.484;11.112;2024-01-06T06:52:42;5.90;99.90
6008;DHT22;3032;49.484;11.112;2024-01-06T06:55:08;5.90;99.90
6008;DHT22;3032;49.484;11.112;2024-01-06T06:57:34;5.90;99.90
6008;DHT22;3032;49.484;11.112;2024-01-06T06:59:59;5.70;99.90
6008;DHT22;3032;49.484;11.112;2024-01-06T07:02:26;5.70;99.90
6008;DHT22;3032;49.484;11.112;2024-01-06T07:04:51;5.70;99.90
6008;DHT22;3032;49.484;11.112;2024-01-06T07:07:17;5.70;99.90
6008;DHT22;3032;49.484;11.112;2024-01-06T07:09:42;5.60;99.90
6008;DHT22;3032;49.484;11.112;2024-01-06T07:12:08;5.60;99.90
6008;DHT22;3032;49.484;11.112;2024-01-06T07:14:33;5.80;99.90
6008;DHT22;3032;49.484;11.112;2024-01-06T07:16:59;5.60;99.90
6008;DHT22;3032;49.484;11.112;2024-01-06T07:19:24;5.30;99.90
6008;DHT22;3032;49.484;11.112;2024-01-06T07:21:50;5.30;99.90
6008;DHT22;3032;49.484;11.112;2024-01-06T07:24:16;5.40;99.90
6008;DHT22;3032;49.484;11.112;2024-01-06T07:26:41;5.30;99.90
6008;DHT22;3032;49.484;11.112;2024-01-06T07:29:07;5.30;99.90
6008;DHT22;3032;49.484;11.112;2024-01-06T07:31:33;5.40;99.90
6008;DHT22;3032;49.484;11.112;2024-01-06T07:33:59;5.40;99.90
6008;DHT22;3032;49.484;11.112;2024-01-06T07:36:25;5.40;99.90
6008;DHT22;3032;49.484;11.112;2024-01-06T07:38:50;5.30;99.90
6008;DHT22;3032;49.484;11.112;2024-01-06T07:41:17;5.30;99.90
6008;DHT22;3032;49.484;11.112;2024-01-06T07:43:43;5.20;99.90
6008;DHT22;3032;49.484;11.112;2024-01-06T07:46:08;5.20;99.90
6008;DHT22;3032;49.484;11.112;2024-01-06T07:48:35;5.40;99.90
6008;DHT22;3032;49.484;11.112;2024-01-06T07:51:01;5.10;99.90
6008;DHT22;3032;49.484;11.112;2024-01-06T07:53:28;5.10;99.90
6008;DHT22;3032;49.484;11.112;2024-01-06T07:55:53;5.20;99.90
6008;DHT22;3032;49.484;11.112;2024-01-06T07:58:19;5.30;99.90
6008;DHT22;3032;49.484;11.112;2024-01-06T08:00:45;5.00;99.90
6008;DHT22;3032;49.484;11.112;2024-01-06T08:03:10;4.80;99.90
6008;DHT22;3032;49.484;11.112;2024-01-06T08:05:36;5.20;99.90
6008;DHT22;3032;49.484;11.112;2024-01-06T08:08:03;5.60;99.90
6008;DHT22;3032;49.484;11.112;2024-01-06T08:10:29;5.90;99.90
6008;DHT22;3032;49.484;11.112;2024-01-06T08:12:55;6.20;99.90
6008;DHT22;3032;49.484;11.112;2024-01-06T08:15:20;6.40;99.90
6008;DHT22;3032;49.484;11.112;2024-01-06T08:17:46;6.60;99.90
6008;DHT22;3032;49.484;11.112;2024-01-06T08:20:12;6.80;99.90
6008;DHT22;3032;49.484;11.112;2024-01-06T08:22:38;6.90;99.90
6008;DHT22;3032;49.484;11.112;2024-01-06T08:25:04;7.00;99.90
6008;DHT22;3032;49.484;11.112;2024-01-06T08:27:31;6.80;99.90
6008;DHT22;3032;49.484;11.112;2024-01-06T08:29:57;6.90;99.90
6008;DHT22;3032;49.484;11.112;2024-01-06T08:32:22;7.10;99.90
6008;DHT22;3032;49.484;11.112;2024-01-06T08:34:48;7.50;99.90
6008;DHT22;3032;49.484;11.112;2024-01-06T08:37:14;7.70;99.90
6008;DHT22;3032;49.484;11.112;2024-01-06T08:39:39;7.40;99.90
6008;DHT22;3032;49.484;11.112;2024-01-06T08:42:05;7.40;99.90
6008;DHT22;3032;49.484;11.112;2024-01-06T08:44:31;7.40;99.90
6008;DHT22;3032;49.484;11.112;2024-01-06T08:46:56;7.40;99.90
6008;DHT22;3032;49.484;11.112;2024-01-06T08:49:22;7.30;99.90
6008;DHT22;3032;49.484;11.112;2024-01-06T08:51:47;7.70;99.90
6008;DHT22;3032;49.484;11.112;2024-01-06T08:54:13;7.20;99.90
6008;DHT22;3032;49.484;11.112;2024-01-06T08:56:39;7.50;99.90
6008;DHT22;3032;49.484;11.112;2024-01-06T08:59:04;7.20;99.90
6008;DHT22;3032;49.484;11.112;2024-01-06T09:01:30;7.50;99.90
6008;DHT22;3032;49.484;11.112;2024-01-06T09:03:57;7.50;99.90
6008;DHT22;3032;49.484;11.112;2024-01-06T09:06:23;7.40;99.90
6008;DHT22;3032;49.484;11.112;2024-01-06T09:08:48;7.40;99.90
6008;DHT22;3032;49.484;11.112;2024-01-06T09:11:14;7.60;99.90
6008;DHT22;3032;49.484;11.112;2024-01-06T09:13:40;7.90;99.90
6008;DHT22;3032;49.484;11.112;2024-01-06T09:16:06;8.00;99.90
6008;DHT22;3032;49.484;11.112;2024-01-06T09:18:31;8.30;99.90
6008;DHT22;3032;49.484;11.112;2024-01-06T09:20:57;8.50;99.90
6008;DHT22;3032;49.484;11.112;2024-01-06T09:23:23;8.60;99.90
6008;DHT22;3032;49.484;11.112;2024-01-06T09:25:48;8.80;99.90
6008;DHT22;3032;49.484;11.112;2024-01-06T09:28:16;8.70;99.90
6008;DHT22;3032;49.484;11.112;2024-01-06T09:30:41;9.10;99.90
6008;DHT22;3032;49.484;11.112;2024-01-06T09:33:07;8.50;99.90
6008;DHT22;3032;49.484;11.112;2024-01-06T09:35:35;8.20;99.90
6008;DHT22;3032;49.484;11.112;2024-01-06T09:38:01;8.30;99.90
6008;DHT22;3032;49.484;11.112;2024-01-06T09:40:26;8.30;99.90
6008;DHT22;3032;49.484;11.112;2024-01-06T09:42:55;8.60;99.90
6008;DHT22;3032;49.484;11.112;2024-01-06T09:45:21;8.60;99.90
6008;DHT22;3032;49.484;11.112;2024-01-06T09:47:50;8.80;99.90
6008;DHT22;3032;49.484;11.112;2024-01-06T09:50:18;9.10;99.90
6008;DHT22;3032;49.484;11.112;2024-01-06T09:52:48;9.30;99.90
6008;DHT22;3032;49.484;11.112;2024-01-06T09:55:25;9.30;99.90
6008;DHT22;3032;49.484;11.112;2024-01-06T09:57:53;9.20;99.90
6008;DHT22;3032;49.484;11.112;2024-01-06T10:00:19;9.30;99.90
6008;DHT22;3032;49.484;11.112;2024-01-06T10:02:46;9.30;99.90
6008;DHT22;3032;49.484;11.112;2024-01-06T10:05:13;9.30;99.90
6008;DHT22;3032;49.484;11.112;2024-01-06T10:07:41;9.40;99.90
6008;DHT22;3032;49.484;11.112;2024-01-06T10:10:09;9.50;99.90
6008;DHT22;3032;49.484;11.112;2024-01-06T10:12:40;9.50;99.90
6008;DHT22;3032;49.484;11.112;2024-01-06T10:15:10;9.50;99.90
6008;DHT22;3032;49.484;11.112;2024-01-06T10:17:41;9.50;99.90
6008;DHT22;3032;49.484;11.112;2024-01-06T10:20:12;9.60;99.90
6008;DHT22;3032;49.484;11.112;2024-01-06T10:22:38;9.60;99.90
6008;DHT22;3032;49.484;11.112;2024-01-06T10:25:06;9.60;99.90
6008;DHT22;3032;49.484;11.112;2024-01-06T10:27:40;9.80;99.90
6008;DHT22;3032;49.484;11.112;2024-01-06T10:30:06;9.70;99.90
6008;DHT22;3032;49.484;11.112;2024-01-06T10:32:33;9.50;99.90
6008;DHT22;3032;49.484;11.112;2024-01-06T10:35:00;9.40;99.90
6008;DHT22;3032;49.484;11.112;2024-01-06T10:37:29;9.40;99.90
6008;DHT22;3032;49.484;11.112;2024-01-06T10:40:13;9.40;99.90
6008;DHT22;3032;49.484;11.112;2024-01-06T10:42:40;9.50;99.90
6008;DHT22;3032;49.484;11.112;2024-01-06T10:45:13;9.60;99.90
6008;DHT22;3032;49.484;11.112;2024-01-06T10:47:42;9.80;99.90
6008;DHT22;3032;49.484;11.112;2024-01-06T10:50:09;9.80;99.90
6008;DHT22;3032;49.484;11.112;2024-01-06T10:52:35;9.90;99.90
6008;DHT22;3032;49.484;11.112;2024-01-06T10:55:02;10.10;99.90
6008;DHT22;3032;49.484;11.112;2024-01-06T10:57:29;10.20;99.90
6008;DHT22;3032;49.484;11.112;2024-01-06T10:59:58;10.00;99.90
6008;DHT22;3032;49.484;11.112;2024-01-06T11:02:24;9.90;99.90
6008;DHT22;3032;49.484;11.112;2024-01-06T11:04:51;9.90;99.90
6008;DHT22;3032;49.484;11.112;2024-01-06T11:07:18;9.60;99.90
6008;DHT22;3032;49.484;11.112;2024-01-06T11:12:21;9.60;99.90
6008;DHT22;3032;49.484;11.112;2024-01-06T11:14:47;9.50;99.90
6008;DHT22;3032;49.484;11.112;2024-01-06T11:17:13;9.50;99.90
6008;DHT22;3032;49.484;11.112;2024-01-06T11:22:27;9.60;99.90
6008;DHT22;3032;49.484;11.112;2024-01-06T11:25:13;9.90;99.90
6008;DHT22;3032;49.484;11.112;2024-01-06T11:27:39;10.30;99.90
6008;DHT22;3032;49.484;11.112;2024-01-06T11:30:05;10.40;99.90
6008;DHT22;3032;49.484;11.112;2024-01-06T11:32:38;10.50;99.90
6008;DHT22;3032;49.484;11.112;2024-01-06T11:35:11;10.60;99.90
6008;DHT22;3032;49.484;11.112;2024-01-06T11:40:09;10.70;99.90
6008;DHT22;3032;49.484;11.112;2024-01-06T11:42:37;10.80;99.90
6008;DHT22;3032;49.484;11.112;2024-01-06T11:45:06;10.60;99.90
6008;DHT22;3032;49.484;11.112;2024-01-06T11:47:33;10.70;99.90
6008;DHT22;3032;49.484;11.112;2024-01-06T11:49:59;10.70;99.90
6008;DHT22;3032;49.484;11.112;2024-01-06T11:52:26;10.80;99.90
6008;DHT22;3032;49.484;11.112;2024-01-06T11:54:54;11.00;99.90
6008;DHT22;3032;49.484;11.112;2024-01-06T11:57:19;11.30;99.90
6008;DHT22;3032;49.484;11.112;2024-01-06T11:59:45;11.40;99.90
6008;DHT22;3032;49.484;11.112;2024-01-06T12:02:12;11.30;99.90
6008;DHT22;3032;49.484;11.112;2024-01-06T12:04:38;11.40;99.90
6008;DHT22;3032;49.484;11.112;2024-01-06T12:07:09;11.30;99.90
6008;DHT22;3032;49.484;11.112;2024-01-06T12:09:38;11.20;99.90
6008;DHT22;3032;49.484;11.112;2024-01-06T12:12:05;11.20;99.90
6008;DHT22;3032;49.484;11.112;2024-01-06T12:14:31;11.20;99.90
6008;DHT22;3032;49.484;11.112;2024-01-06T12:17:01;11.30;99.90
6008;DHT22;3032;49.484;11.112;2024-01-06T12:19:32;11.30;99.90
6008;DHT22;3032;49.484;11.112;2024-01-06T12:21:58;11.30;99.90
6008;DHT22;3032;49.484;11.112;2024-01-06T12:24:27;11.30;99.90
6008;DHT22;3032;49.484;11.112;2024-01-06T12:26:56;11.30;99.90
6008;DHT22;3032;49.484;11.112;2024-01-06T12:29:22;11.20;99.90
6008;DHT22;3032;49.484;11.112;2024-01-06T12:31:48;11.20;99.90
6008;DHT22;3032;49.484;11.112;2024-01-06T12:34:13;11.00;99.90
6008;DHT22;3032;49.484;11.112;2024-01-06T12:36:40;10.90;99.90
6008;DHT22;3032;49.484;11.112;2024-01-06T12:39:11;10.80;99.90
6008;DHT22;3032;49.484;11.112;2024-01-06T12:41:41;10.80;99.90
6008;DHT22;3032;49.484;11.112;2024-01-06T12:44:07;10.70;99.90
6008;DHT22;3032;49.484;11.112;2024-01-06T12:46:33;10.80;99.90
6008;DHT22;3032;49.484;11.112;2024-01-06T12:48:59;10.90;99.90
6008;DHT22;3032;49.484;11.112;2024-01-06T12:51:24;11.00;99.90
6008;DHT22;3032;49.484;11.112;2024-01-06T12:53:50;11.10;99.90
6008;DHT22;3032;49.484;11.112;2024-01-06T12:56:16;11.30;99.90
6008;DHT22;3032;49.484;11.112;2024-01-06T12:58:42;11.40;99.90
6008;DHT22;3032;49.484;11.112;2024-01-06T13:01:09;11.40;99.90
6008;DHT22;3032;49.484;11.112;2024-01-06T13:03:34;11.20;99.90
6008;DHT22;3032;49.484;11.112;2024-01-06T13:06:00;11.30;99.90
6008;DHT22;3032;49.484;11.112;2024-01-06T13:08:26;11.40;99.90
6008;DHT22;3032;49.484;11.112;2024-01-06T13:10:53;11.30;99.90
6008;DHT22;3032;49.484;11.112;2024-01-06T13:13:19;11.30;99.90
6008;DHT22;3032;49.484;11.112;2024-01-06T13:15:45;11.30;99.90
6008;DHT22;3032;49.484;11.112;2024-01-06T13:18:12;11.10;99.90
6008;DHT22;3032;49.484;11.112;2024-01-06T13:20:38;10.90;99.90
6008;DHT22;3032;49.484;11.112;2024-01-06T13:23:06;10.50;99.90
6008;DHT22;3032;49.484;11.112;2024-01-06T13:25:32;10.40;99.90
6008;DHT22;3032;49.484;11.112;2024-01-06T13:27:58;10.10;99.90
6008;DHT22;3032;49.484;11.112;2024-01-06T13:30:24;10.00;99.90
6008;DHT22;3032;49.484;11.112;2024-01-06T13:32:51;10.00;99.90
6008;DHT22;3032;49.484;11.112;2024-01-06T13:35:19;10.20;99.90
6008;DHT22;3032;49.484;11.112;2024-01-06T13:37:45;10.20;99.90
6008;DHT22;3032;49.484;11.112;2024-01-06T13:40:13;10.30;99.90
6008;DHT22;3032;49.484;11.112;2024-01-06T13:42:39;10.50;99.90
6008;DHT22;3032;49.484;11.112;2024-01-06T13:45:06;10.60;99.90
6008;DHT22;3032;49.484;11.112;2024-01-06T13:47:32;10.60;99.90
6008;DHT22;3032;49.484;11.112;2024-01-06T13:49:58;10.50;99.90
6008;DHT22;3032;49.484;11.112;2024-01-06T13:52:24;10.40;99.90
6008;DHT22;3032;49.484;11.112;2024-01-06T13:54:50;10.40;99.90
6008;DHT22;3032;49.484;11.112;2024-01-06T13:57:15;10.40;99.90
6008;DHT22;3032;49.484;11.112;2024-01-06T13:59:41;10.30;99.90
6008;DHT22;3032;49.484;11.112;2024-01-06T14:02:08;10.20;99.90
6008;DHT22;3032;49.484;11.112;2024-01-06T14:04:35;10.10;99.90
6008;DHT22;3032;49.484;11.112;2024-01-06T14:07:01;10.20;99.90
6008;DHT22;3032;49.484;11.112;2024-01-06T14:09:27;10.10;99.90
6008;DHT22;3032;49.484;11.112;2024-01-06T14:11:53;10.00;99.90
6008;DHT22;3032;49.484;11.112;2024-01-06T14:14:20;10.10;99.90
6008;DHT22;3032;49.484;11.112;2024-01-06T14:16:46;10.10;99.90
6008;DHT22;3032;49.484;11.112;2024-01-06T14:19:12;10.00;99.90
6008;DHT22;3032;49.484;11.112;2024-01-06T14:21:38;9.90;99.90
6008;DHT22;3032;49.484;11.112;2024-01-06T14:24:04;9.90;99.90
6008;DHT22;3032;49.484;11.112;2024-01-06T14:26:31;10.00;99.90
6008;DHT22;3032;49.484;11.112;2024-01-06T14:28:57;10.00;99.90
6008;DHT22;3032;49.484;11.112;2024-01-06T14:31:24;10.00;99.90
6008;DHT22;3032;49.484;11.112;2024-01-06T14:33:49;10.00;99.90
6008;DHT22;3032;49.484;11.112;2024-01-06T14:36:15;9.80;99.90
6008;DHT22;3032;49.484;11.112;2024-01-06T14:38:41;9.80;99.90
6008;DHT22;3032;49.484;11.112;2024-01-06T14:41:06;9.90;99.90
6008;DHT22;3032;49.484;11.112;2024-01-06T14:43:32;9.80;99.90
6008;DHT22;3032;49.484;11.112;2024-01-06T14:45:58;9.90;99.90
6008;DHT22;3032;49.484;11.112;2024-01-06T14:48:23;9.70;99.90
6008;DHT22;3032;49.484;11.112;2024-01-06T14:50:49;9.80;99.90
6008;DHT22;3032;49.484;11.112;2024-01-06T14:53:15;9.70;99.90
6008;DHT22;3032;49.484;11.112;2024-01-06T14:55:41;9.70;99.90
6008;DHT22;3032;49.484;11.112;2024-01-06T14:58:07;9.60;99.90
6008;DHT22;3032;49.484;11.112;2024-01-06T15:00:34;9.60;99.90
6008;DHT22;3032;49.484;11.112;2024-01-06T15:03:00;9.60;99.90
6008;DHT22;3032;49.484;11.112;2024-01-06T15:05:26;9.50;99.90
6008;DHT22;3032;49.484;11.112;2024-01-06T15:07:54;9.50;99.90
6008;DHT22;3032;49.484;11.112;2024-01-06T15:10:20;9.50;99.90
6008;DHT22;3032;49.484;11.112;2024-01-06T15:12:46;9.60;99.90
6008;DHT22;3032;49.484;11.112;2024-01-06T15:15:11;9.60;99.90
6008;DHT22;3032;49.484;11.112;2024-01-06T15:17:37;9.40;99.90
6008;DHT22;3032;49.484;11.112;2024-01-06T15:20:04;9.40;99.90
6008;DHT22;3032;49.484;11.112;2024-01-06T15:22:30;9.40;99.90
6008;DHT22;3032;49.484;11.112;2024-01-06T15:24:56;9.50;99.90
6008;DHT22;3032;49.484;11.112;2024-01-06T15:27:21;9.40;99.90
6008;DHT22;3032;49.484;11.112;2024-01-06T15:29:47;9.30;99.90
6008;DHT22;3032;49.484;11.112;2024-01-06T15:32:12;9.30;99.90
6008;DHT22;3032;49.484;11.112;2024-01-06T15:34:38;9.20;99.90
6008;DHT22;3032;49.484;11.112;2024-01-06T15:37:04;9.20;99.90
6008;DHT22;3032;49.484;11.112;2024-01-06T15:39:29;9.10;99.90
6008;DHT22;3032;49.484;11.112;2024-01-06T15:41:55;8.90;99.90
6008;DHT22;3032;49.484;11.112;2024-01-06T15:44:21;8.90;99.90
6008;DHT22;3032;49.484;11.112;2024-01-06T15:46:46;8.90;99.90
6008;DHT22;3032;49.484;11.112;2024-01-06T15:49:12;8.90;99.90
6008;DHT22;3032;49.484;11.112;2024-01-06T15:51:41;9.00;99.90
6008;DHT22;3032;49.484;11.112;2024-01-06T15:54:07;9.10;99.90
6008;DHT22;3032;49.484;11.112;2024-01-06T15:56:32;9.00;99.90
6008;DHT22;3032;49.484;11.112;2024-01-06T15:58:58;8.90;99.90
6008;DHT22;3032;49.484;11.112;2024-01-06T16:01:23;8.90;99.90